createdAt,value
2022-08-25T00:01:26.990Z,27.54
2022-08-25T00:03:58.926Z,27.51
2022-08-25T00:06:27.755Z,27.46
2022-08-25T00:08:59.583Z,27.42
2022-08-25T00:11:30.143Z,27.41
2022-08-25T00:14:01.999Z,27.40
2022-08-25T00:16:31.434Z,27.35
2022-08-25T00:19:03.398Z,27.32
2022-08-25T00:21:32.600Z,27.27
2022-08-25T00:24:02.269Z,27.25
2022-08-25T00:26:31.207Z,27.21
2022-08-25T00:29:01.602Z,27.43
2022-08-25T00:31:38.413Z,27.50
2022-08-25T00:34:11.174Z,27.51
2022-08-25T00:36:40.077Z,27.49
2022-08-25T00:39:09.933Z,27.45
2022-08-25T00:41:39.632Z,27.41
2022-08-25T00:44:10.665Z,27.40
2022-08-25T00:46:40.927Z,27.35
2022-08-25T00:49:25.056Z,27.32
2022-08-25T00:52:00.293Z,27.28
2022-08-25T00:54:30.934Z,27.26
2022-08-25T00:57:00.394Z,27.22
2022-08-25T00:59:29.105Z,27.20
2022-08-25T01:01:58.932Z,27.14
2022-08-25T01:04:28.662Z,27.12
2022-08-25T01:06:59.302Z,27.10
2022-08-25T01:09:27.669Z,27.07
2022-08-25T01:11:55.941Z,27.04
2022-08-25T01:14:27.083Z,27.01
2022-08-25T01:16:55.354Z,26.95
2022-08-25T01:19:23.401Z,26.99
2022-08-25T01:21:55.033Z,26.96
2022-08-25T01:24:29.648Z,26.92
2022-08-25T01:26:57.963Z,26.87
2022-08-25T01:29:26.461Z,26.84
2022-08-25T01:32:00.792Z,26.82
2022-08-25T01:34:49.073Z,26.78
2022-08-25T01:37:21.698Z,26.75
2022-08-25T01:40:05.288Z,26.73
2022-08-25T01:43:09.672Z,26.66
2022-08-25T01:45:39.154Z,26.65
2022-08-25T01:51:02.498Z,26.57
2022-08-25T01:53:35.229Z,26.55
2022-08-25T01:56:12.860Z,26.51
2022-08-25T01:59:23.847Z,26.48
2022-08-25T02:01:59.661Z,26.42
2022-08-25T02:04:29.559Z,26.40
2022-08-25T02:06:57.735Z,26.38
2022-08-25T02:09:27.185Z,26.37
2022-08-25T02:11:56.745Z,26.36
2022-08-25T02:17:46.309Z,26.25
2022-08-25T02:20:14.358Z,26.18
2022-08-25T02:22:43.433Z,26.16
2022-08-25T02:25:21.444Z,26.13
2022-08-25T02:27:49.502Z,26.09
2022-08-25T02:30:18.184Z,26.09
2022-08-25T02:32:46.291Z,26.05
2022-08-25T02:35:14.634Z,26.04
2022-08-25T02:37:42.728Z,26.02
2022-08-25T02:40:11.958Z,25.98
2022-08-25T02:42:42.783Z,25.94
2022-08-25T02:45:11.078Z,25.93
2022-08-25T02:47:39.186Z,25.92
2022-08-25T02:50:08.546Z,25.89
2022-08-25T02:52:37.097Z,25.86
2022-08-25T02:55:07.422Z,25.83
2022-08-25T02:57:35.835Z,25.81
2022-08-25T03:00:06.960Z,25.79
2022-08-25T03:02:35.123Z,25.78
2022-08-25T03:05:03.267Z,25.75
2022-08-25T03:07:31.412Z,25.73
2022-08-25T03:10:07.787Z,25.75
2022-08-25T03:12:35.870Z,25.76
2022-08-25T03:15:09.295Z,25.75
2022-08-25T03:17:44.458Z,25.72
2022-08-25T03:20:14.527Z,25.73
2022-08-25T03:22:43.115Z,25.73
2022-08-25T03:25:29.237Z,25.73
2022-08-25T03:27:57.367Z,25.71
2022-08-25T03:30:27.288Z,25.72
2022-08-25T03:32:55.471Z,25.69
2022-08-25T03:35:23.729Z,25.71
2022-08-25T03:37:52.245Z,25.71
2022-08-25T03:40:20.837Z,25.66
2022-08-25T03:42:48.951Z,25.67
2022-08-25T03:45:20.894Z,25.65
2022-08-25T03:47:51.578Z,25.65
2022-08-25T03:50:21.541Z,25.61
2022-08-25T03:52:53.801Z,25.61
2022-08-25T03:55:23.921Z,25.59
2022-08-25T03:57:52.051Z,25.58
2022-08-25T04:00:20.882Z,25.57
2022-08-25T04:02:50.657Z,25.53
2022-08-25T04:05:20.292Z,25.51
2022-08-25T04:07:48.439Z,25.52
2022-08-25T04:10:16.834Z,25.49
2022-08-25T04:12:45.351Z,25.47
2022-08-25T04:15:13.530Z,25.44
2022-08-25T04:17:42.061Z,25.40
2022-08-25T04:20:14.072Z,25.39
2022-08-25T04:22:44.859Z,25.38
2022-08-25T04:25:14.191Z,25.35
2022-08-25T04:27:42.551Z,25.36
2022-08-25T04:30:12.077Z,25.32
2022-08-25T04:32:40.731Z,25.31
2022-08-25T04:35:09.614Z,25.31
2022-08-25T04:37:39.101Z,25.31
2022-08-25T04:40:08.506Z,25.32
2022-08-25T04:42:37.001Z,25.32
2022-08-25T04:45:06.201Z,25.31
2022-08-25T04:47:38.232Z,25.29
2022-08-25T04:50:07.772Z,25.29
2022-08-25T04:52:35.755Z,25.30
2022-08-25T04:55:05.841Z,25.28
2022-08-25T04:57:36.018Z,25.28
2022-08-25T05:00:05.876Z,25.29
2022-08-25T05:02:33.892Z,25.27
2022-08-25T05:05:04.014Z,25.27
2022-08-25T05:07:32.024Z,25.28
2022-08-25T05:10:00.414Z,25.24
2022-08-25T05:12:30.044Z,25.27
2022-08-25T05:15:21.883Z,25.25
2022-08-25T05:17:53.947Z,25.25
2022-08-25T05:20:24.153Z,25.28
2022-08-25T05:22:52.518Z,25.29
2022-08-25T05:25:20.665Z,25.32
2022-08-25T05:27:50.190Z,25.33
2022-08-25T05:30:18.494Z,25.31
2022-08-25T05:32:46.666Z,25.31
2022-08-25T05:35:15.569Z,25.34
2022-08-25T05:37:44.018Z,25.36
2022-08-25T05:40:12.249Z,25.38
2022-08-25T05:42:40.425Z,25.43
2022-08-25T05:45:16.658Z,25.44
2022-08-25T05:47:48.908Z,25.42
2022-08-25T05:50:17.687Z,25.43
2022-08-25T05:52:46.714Z,25.47
2022-08-25T05:55:15.661Z,25.49
2022-08-25T05:57:43.903Z,25.53
2022-08-25T06:00:14.525Z,25.60
2022-08-25T06:02:43.660Z,25.64
2022-08-25T06:05:13.683Z,25.67
2022-08-25T06:07:41.777Z,25.75
2022-08-25T06:10:11.956Z,25.81
2022-08-25T06:12:42.242Z,25.81
2022-08-25T06:15:14.348Z,25.90
2022-08-25T06:17:43.122Z,25.93
2022-08-25T06:20:14.260Z,25.99
2022-08-25T06:22:43.138Z,26.07
2022-08-25T06:25:13.058Z,26.07
2022-08-25T06:27:41.547Z,26.13
2022-08-25T06:30:12.831Z,26.22
2022-08-25T06:32:47.076Z,26.33
2022-08-25T06:35:19.109Z,26.38
2022-08-25T06:37:48.141Z,26.45
2022-08-25T06:40:17.071Z,26.58
2022-08-25T06:42:49.959Z,26.67
2022-08-25T06:45:19.387Z,26.75
2022-08-25T06:47:48.917Z,26.84
2022-08-25T06:50:16.941Z,26.92
2022-08-25T06:52:44.948Z,27.05
2022-08-25T06:55:13.072Z,27.15
2022-08-25T06:57:41.179Z,27.22
2022-08-25T07:00:10.874Z,27.28
2022-08-25T07:02:40.652Z,27.34
2022-08-25T07:05:17.087Z,27.43
2022-08-25T07:07:54.928Z,27.51
2022-08-25T07:10:23.180Z,27.58
2022-08-25T07:12:51.831Z,27.79
2022-08-25T07:15:20.901Z,27.96
2022-08-25T07:17:50.631Z,28.14
2022-08-25T07:20:20.816Z,28.32
2022-08-25T07:22:49.527Z,28.57
2022-08-25T07:25:18.064Z,28.93
2022-08-25T07:27:46.917Z,29.48
2022-08-25T07:30:15.255Z,29.97
2022-08-25T07:32:43.481Z,30.34
2022-08-25T07:35:18.862Z,30.81
2022-08-25T07:37:50.714Z,31.01
2022-08-25T07:40:23.048Z,31.00
2022-08-25T07:42:53.560Z,31.26
2022-08-25T07:45:29.637Z,31.57
2022-08-25T07:47:58.368Z,31.75
2022-08-25T07:50:26.994Z,31.88
2022-08-25T07:52:56.748Z,32.03
2022-08-25T07:55:27.160Z,32.25
2022-08-25T07:57:57.386Z,32.49
2022-08-25T08:00:28.021Z,32.77
2022-08-25T08:02:56.620Z,32.85
2022-08-25T08:05:24.974Z,32.62
2022-08-25T08:07:53.173Z,32.61
2022-08-25T08:13:18.054Z,32.97
2022-08-25T08:15:47.557Z,33.15
2022-08-25T08:18:16.051Z,33.06
2022-08-25T08:20:45.522Z,32.98
2022-08-25T08:23:13.720Z,33.12
2022-08-25T08:25:43.199Z,33.20
2022-08-25T08:28:11.367Z,33.20
2022-08-25T08:30:39.473Z,33.30
2022-08-25T08:33:11.232Z,33.33
2022-08-25T08:35:40.887Z,33.22
2022-08-25T08:38:14.421Z,33.17
2022-08-25T08:41:22.038Z,33.29
2022-08-25T08:43:57.588Z,33.43
2022-08-25T08:46:27.926Z,33.53
2022-08-25T08:49:02.981Z,33.59
2022-08-25T08:51:39.316Z,33.73
2022-08-25T08:54:15.045Z,33.90
2022-08-25T08:56:49.746Z,34.10
2022-08-25T08:59:21.493Z,34.27
2022-08-25T09:01:54.480Z,34.41
2022-08-25T09:04:28.791Z,34.68
2022-08-25T09:06:58.660Z,34.83
2022-08-25T09:09:30.770Z,34.96
2022-08-25T09:12:12.858Z,34.86
2022-08-25T09:14:58.421Z,34.95
2022-08-25T09:17:43.928Z,35.25
2022-08-25T09:20:49.767Z,35.58
2022-08-25T09:23:32.685Z,35.79
2022-08-25T09:26:09.015Z,35.86
2022-08-25T09:28:44.553Z,35.87
2022-08-25T09:31:26.361Z,35.97
2022-08-25T09:33:59.201Z,36.26
2022-08-25T09:36:28.676Z,36.43
2022-08-25T09:38:57.172Z,36.49
2022-08-25T09:41:43.097Z,36.52
2022-08-25T09:44:21.883Z,36.72
2022-08-25T09:47:02.197Z,36.80
2022-08-25T09:49:37.962Z,36.71
2022-08-25T09:52:25.523Z,37.03
2022-08-25T09:54:54.896Z,36.98
2022-08-25T09:57:32.233Z,37.26
2022-08-25T10:00:17.437Z,37.75
2022-08-25T10:02:47.108Z,38.09
2022-08-25T10:05:22.905Z,38.36
2022-08-25T10:07:55.677Z,38.37
2022-08-25T10:10:32.237Z,38.19
2022-08-25T10:13:03.531Z,38.35
2022-08-25T10:15:38.769Z,38.22
2022-08-25T10:18:22.110Z,38.19
2022-08-25T10:21:07.590Z,38.41
2022-08-25T10:23:39.133Z,38.48
2022-08-25T10:26:14.386Z,38.35
2022-08-25T10:28:55.144Z,38.01
2022-08-25T10:31:34.660Z,38.09
2022-08-25T10:34:14.141Z,37.87
2022-08-25T10:36:54.038Z,37.97
2022-08-25T10:39:36.703Z,38.21
2022-08-25T10:42:33.264Z,38.32
2022-08-25T10:45:38.403Z,38.14
2022-08-25T10:48:35.693Z,38.01
2022-08-25T10:51:25.305Z,38.17
2022-08-25T10:54:06.306Z,38.33
2022-08-25T10:56:40.730Z,38.55
2022-08-25T10:59:43.535Z,38.70
2022-08-25T11:02:38.335Z,39.00
2022-08-25T11:05:16.641Z,39.49
2022-08-25T11:07:59.183Z,39.82
2022-08-25T11:10:40.967Z,39.78
2022-08-25T11:13:15.747Z,40.02
2022-08-25T11:16:16.103Z,40.00
2022-08-25T11:18:49.291Z,40.10
2022-08-25T11:21:26.157Z,39.76
2022-08-25T11:24:00.133Z,39.77
2022-08-25T11:26:36.949Z,40.07
2022-08-25T11:29:12.050Z,40.02
2022-08-25T11:31:48.342Z,39.99
2022-08-25T11:34:22.543Z,39.52
2022-08-25T11:36:56.376Z,39.49
2022-08-25T11:39:37.464Z,39.56
2022-08-25T11:42:19.260Z,39.54
2022-08-25T11:44:55.689Z,39.68
2022-08-25T11:47:41.933Z,40.04
2022-08-25T11:50:29.895Z,40.02
2022-08-25T11:53:04.202Z,40.42
2022-08-25T11:55:51.018Z,40.63
2022-08-25T11:58:31.739Z,40.51
2022-08-25T12:01:01.652Z,40.92
2022-08-25T12:04:12.578Z,41.34
2022-08-25T12:07:32.217Z,41.35
2022-08-25T12:10:26.883Z,41.85
2022-08-25T12:13:04.847Z,42.25
2022-08-25T12:16:00.511Z,42.06
2022-08-25T12:18:46.355Z,41.61
2022-08-25T12:21:31.351Z,41.22
2022-08-25T12:24:17.543Z,41.50
2022-08-25T12:26:56.434Z,41.79
2022-08-25T12:29:42.331Z,41.76
2022-08-25T12:32:46.369Z,41.93
2022-08-25T12:35:27.203Z,41.76
2022-08-25T12:38:02.559Z,41.85
2022-08-25T12:40:35.660Z,41.87
2022-08-25T12:43:09.837Z,41.93
2022-08-25T12:45:46.803Z,41.86
2022-08-25T12:48:57.970Z,40.97
2022-08-25T12:51:28.216Z,40.90
2022-08-25T12:54:05.444Z,41.29
2022-08-25T12:56:39.484Z,41.19
2022-08-25T12:59:18.446Z,41.07
2022-08-25T13:02:12.474Z,41.01
2022-08-25T13:05:18.924Z,41.12
2022-08-25T13:08:02.451Z,40.82
2022-08-25T13:10:47.207Z,40.72
2022-08-25T13:13:23.756Z,40.55
2022-08-25T13:16:02.348Z,40.38
2022-08-25T13:18:32.856Z,40.22
2022-08-25T13:21:08.585Z,40.17
2022-08-25T13:23:42.059Z,39.96
2022-08-25T13:26:13.599Z,39.95
2022-08-25T13:28:50.367Z,39.88
2022-08-25T13:31:22.625Z,40.01
2022-08-25T13:33:54.877Z,40.15
2022-08-25T13:36:47.065Z,40.41
2022-08-25T13:39:45.532Z,40.67
2022-08-25T13:42:16.185Z,40.21
2022-08-25T13:44:52.026Z,39.76
2022-08-25T13:47:43.712Z,39.47
2022-08-25T13:50:26.437Z,39.32
2022-08-25T13:52:58.122Z,39.47
2022-08-25T13:55:31.003Z,39.58
2022-08-25T13:58:14.463Z,39.69
2022-08-25T14:00:46.469Z,39.98
2022-08-25T14:06:20.594Z,39.63
2022-08-25T14:09:08.096Z,39.59
2022-08-25T14:11:46.572Z,39.73
2022-08-25T14:14:32.184Z,39.62
2022-08-25T14:17:21.806Z,39.61
2022-08-25T14:19:55.444Z,39.62
2022-08-25T14:22:25.677Z,39.71
2022-08-25T14:24:55.423Z,39.80
2022-08-25T14:27:23.992Z,39.70
2022-08-25T14:29:53.008Z,39.69
2022-08-25T14:32:21.531Z,39.43
2022-08-25T14:34:50.163Z,39.14
2022-08-25T14:37:25.322Z,38.99
2022-08-25T14:39:55.603Z,38.89
2022-08-25T14:42:26.230Z,39.04
2022-08-25T14:44:54.796Z,39.10
2022-08-25T14:47:25.459Z,39.03
2022-08-25T14:49:53.874Z,39.14
2022-08-25T14:52:26.821Z,39.23
2022-08-25T14:54:57.273Z,38.99
2022-08-25T14:57:25.642Z,38.86
2022-08-25T14:59:54.224Z,38.88
2022-08-25T15:02:29.506Z,38.78
2022-08-25T15:05:02.232Z,38.59
2022-08-25T15:07:49.475Z,38.66
2022-08-25T15:10:19.522Z,38.61
2022-08-25T15:12:53.848Z,38.52
2022-08-25T15:15:26.370Z,38.62
2022-08-25T15:17:59.303Z,38.70
2022-08-25T15:20:29.422Z,38.77
2022-08-25T15:22:59.183Z,38.63
2022-08-25T15:25:29.215Z,38.58
2022-08-25T15:27:58.416Z,38.52
2022-08-25T15:30:31.195Z,38.71
2022-08-25T15:32:59.805Z,38.91
2022-08-25T15:35:29.272Z,38.81
2022-08-25T15:37:57.802Z,38.81
2022-08-25T15:40:26.412Z,38.66
2022-08-25T15:42:56.356Z,38.34
2022-08-25T15:45:24.636Z,38.04
2022-08-25T15:47:53.973Z,37.93
2022-08-25T15:50:26.061Z,38.01
2022-08-25T15:52:54.812Z,37.96
2022-08-25T15:55:23.247Z,37.84
2022-08-25T15:57:51.924Z,37.90
2022-08-25T16:00:22.087Z,38.06
2022-08-25T16:02:50.852Z,38.07
2022-08-25T16:05:25.135Z,37.84
2022-08-25T16:07:54.322Z,37.79
2022-08-25T16:10:22.721Z,37.81
2022-08-25T16:12:51.895Z,37.91
2022-08-25T16:15:24.051Z,37.93
2022-08-25T16:17:57.130Z,37.89
2022-08-25T16:20:26.563Z,37.85
2022-08-25T16:22:54.834Z,37.89
2022-08-25T16:25:23.960Z,37.87
2022-08-25T16:27:52.366Z,37.82
2022-08-25T16:30:22.464Z,37.67
2022-08-25T16:32:50.786Z,37.60
2022-08-25T16:35:19.293Z,37.63
2022-08-25T16:37:48.709Z,37.46
2022-08-25T16:40:19.114Z,37.41
2022-08-25T16:42:48.488Z,37.36
2022-08-25T16:45:17.727Z,37.17
2022-08-25T16:47:47.530Z,37.12
2022-08-25T16:50:16.931Z,36.90
2022-08-25T16:53:02.934Z,36.88
2022-08-25T16:55:39.337Z,36.86
2022-08-25T16:58:08.846Z,36.80
2022-08-25T17:00:41.882Z,36.77
2022-08-25T17:03:14.651Z,36.85
2022-08-25T17:05:44.670Z,36.73
2022-08-25T17:08:31.711Z,36.69
2022-08-25T17:11:09.225Z,36.58
2022-08-25T17:13:38.923Z,36.54
2022-08-25T17:16:13.390Z,36.49
2022-08-25T17:18:47.876Z,36.46
2022-08-25T17:21:23.934Z,36.31
2022-08-25T17:23:54.161Z,36.23
2022-08-25T17:26:27.703Z,36.18
2022-08-25T17:28:57.602Z,36.17
2022-08-25T17:31:29.993Z,36.19
2022-08-25T17:34:00.682Z,36.10
2022-08-25T17:36:29.433Z,36.04
2022-08-25T17:38:57.695Z,35.89
2022-08-25T17:41:26.476Z,35.71
2022-08-25T17:43:54.766Z,35.54
2022-08-25T17:46:27.412Z,35.44
2022-08-25T17:48:56.064Z,35.36
2022-08-25T17:51:25.845Z,35.27
2022-08-25T17:53:54.431Z,35.14
2022-08-25T17:56:25.911Z,35.04
2022-08-25T17:58:56.881Z,34.90
2022-08-25T18:01:28.199Z,34.75
2022-08-25T18:03:57.441Z,34.57
2022-08-25T18:06:29.606Z,34.42
2022-08-25T18:09:01.547Z,34.35
2022-08-25T18:11:31.669Z,34.06
2022-08-25T18:14:01.006Z,33.89
2022-08-25T18:16:31.363Z,33.76
2022-08-25T18:18:59.771Z,33.61
2022-08-25T18:21:31.839Z,33.47
2022-08-25T18:24:01.787Z,33.35
2022-08-25T18:26:30.933Z,33.23
2022-08-25T18:29:00.329Z,33.18
2022-08-25T18:31:28.979Z,33.03
2022-08-25T18:33:57.393Z,32.92
2022-08-25T18:36:25.722Z,32.81
2022-08-25T18:39:13.647Z,32.72
2022-08-25T18:41:45.074Z,32.58
2022-08-25T18:44:15.512Z,32.47
2022-08-25T18:46:45.537Z,32.38
2022-08-25T18:49:17.242Z,32.29
2022-08-25T18:51:46.319Z,32.17
2022-08-25T18:54:23.687Z,32.07
2022-08-25T18:56:53.942Z,31.97
2022-08-25T18:59:23.760Z,31.88
2022-08-25T19:01:53.938Z,31.81
2022-08-25T19:04:28.618Z,31.70
2022-08-25T19:07:01.018Z,31.61
2022-08-25T19:09:31.402Z,31.54
2022-08-25T19:11:59.788Z,31.43
2022-08-25T19:14:28.489Z,31.34
2022-08-25T19:16:58.096Z,31.27
2022-08-25T19:19:26.518Z,31.18
2022-08-25T19:21:54.887Z,31.14
2022-08-25T19:24:23.212Z,31.09
2022-08-25T19:26:54.758Z,31.04
2022-08-25T19:29:24.001Z,30.99
2022-08-25T19:31:53.343Z,30.93
2022-08-25T19:34:28.231Z,30.87
2022-08-25T19:37:00.165Z,30.81
2022-08-25T19:39:28.664Z,30.78
2022-08-25T19:42:00.341Z,30.71
2022-08-25T19:44:31.964Z,30.66
2022-08-25T19:47:00.754Z,30.61
2022-08-25T19:49:32.808Z,30.59
2022-08-25T19:52:02.312Z,30.53
2022-08-25T19:54:35.535Z,30.49
2022-08-25T19:57:07.885Z,30.47
2022-08-25T19:59:43.473Z,30.42
2022-08-25T20:02:15.445Z,30.40
2022-08-25T20:04:49.964Z,30.39
2022-08-25T20:07:20.152Z,30.36
2022-08-25T20:09:49.387Z,30.33
2022-08-25T20:12:20.369Z,30.32
2022-08-25T20:14:50.027Z,30.32
2022-08-25T20:17:24.772Z,30.28
2022-08-25T20:19:57.164Z,30.24
2022-08-25T20:22:27.060Z,30.21
2022-08-25T20:24:58.559Z,30.19
2022-08-25T20:27:33.848Z,30.16
2022-08-25T20:30:03.420Z,30.13
2022-08-25T20:32:32.757Z,30.12
2022-08-25T20:35:01.813Z,30.08
2022-08-25T20:37:30.440Z,30.06
2022-08-25T20:39:59.020Z,30.06
2022-08-25T20:42:29.236Z,30.04
2022-08-25T20:44:58.047Z,30.01
2022-08-25T20:47:26.775Z,30.01
2022-08-25T20:49:55.303Z,30.00
2022-08-25T20:52:23.668Z,30.02
2022-08-25T20:54:52.941Z,30.00
2022-08-25T20:57:24.327Z,29.96
2022-08-25T20:59:56.255Z,29.95
2022-08-25T21:02:25.415Z,29.93
2022-08-25T21:04:54.109Z,29.90
2022-08-25T21:07:26.497Z,29.85
2022-08-25T21:09:56.539Z,29.81
2022-08-25T21:12:25.069Z,29.77
2022-08-25T21:14:56.714Z,29.72
2022-08-25T21:17:25.698Z,29.71
2022-08-25T21:19:54.064Z,29.70
2022-08-25T21:22:22.815Z,29.66
2022-08-25T21:24:51.609Z,29.65
2022-08-25T21:27:20.294Z,29.62
2022-08-25T21:29:55.088Z,29.59
2022-08-25T21:32:25.511Z,29.59
2022-08-25T21:34:54.809Z,29.58
2022-08-25T21:37:23.170Z,29.53
2022-08-25T21:39:51.696Z,29.52
2022-08-25T21:42:21.137Z,29.51
2022-08-25T21:44:50.620Z,29.47
2022-08-25T21:47:20.890Z,29.43
2022-08-25T21:49:50.797Z,29.41
2022-08-25T21:52:19.439Z,29.34
2022-08-25T21:54:47.882Z,29.31
2022-08-25T21:57:19.147Z,29.30
2022-08-25T21:59:52.044Z,29.30
2022-08-25T22:02:23.272Z,29.29
2022-08-25T22:04:56.271Z,29.23
2022-08-25T22:07:24.945Z,29.20
2022-08-25T22:09:55.094Z,29.20
2022-08-25T22:12:25.016Z,29.17
2022-08-25T22:14:53.570Z,29.11
2022-08-25T22:17:24.297Z,29.06
2022-08-25T22:19:54.132Z,29.03
2022-08-25T22:22:24.515Z,29.00
2022-08-25T22:24:53.996Z,28.90
2022-08-25T22:27:23.546Z,28.85
2022-08-25T22:29:52.874Z,28.80
2022-08-25T22:32:21.721Z,28.76
2022-08-25T22:34:50.362Z,28.73
2022-08-25T22:37:19.113Z,28.70
2022-08-25T22:39:48.952Z,28.67
2022-08-25T22:42:18.487Z,28.61
2022-08-25T22:44:46.969Z,28.58
2022-08-25T22:47:17.703Z,28.56
2022-08-25T22:49:46.546Z,28.54
2022-08-25T22:52:16.010Z,28.53
2022-08-25T22:54:44.292Z,28.47
2022-08-25T22:57:14.156Z,28.48
2022-08-25T22:59:42.687Z,28.43
2022-08-25T23:02:11.217Z,28.42
2022-08-25T23:04:41.107Z,28.38
2022-08-25T23:07:12.435Z,28.35
2022-08-25T23:09:40.518Z,28.32
2022-08-25T23:12:11.162Z,28.32
2022-08-25T23:14:42.328Z,28.30
2022-08-25T23:17:12.565Z,28.28
2022-08-25T23:19:40.601Z,28.28
2022-08-25T23:22:10.859Z,28.25
2022-08-25T23:24:42.720Z,28.23
2022-08-25T23:27:13.426Z,28.20
2022-08-25T23:29:45.059Z,28.15
2022-08-25T23:32:14.358Z,28.11
2022-08-25T23:34:43.878Z,28.09
2022-08-25T23:37:18.367Z,28.09
2022-08-25T23:39:49.651Z,28.04
2022-08-25T23:42:19.276Z,28.05
2022-08-25T23:44:49.046Z,28.01
2022-08-25T23:47:17.437Z,28.00
2022-08-25T23:49:45.840Z,27.98
2022-08-25T23:52:17.187Z,27.96
2022-08-25T23:54:45.769Z,27.95
2022-08-25T23:57:13.805Z,27.91
2022-08-25T23:59:43.286Z,27.88
